sensor_id;sensor_type;location;lat;lon;timestamp;temperature;humidity
3055;DHT22;1537;52.018;8.542;2022-11-12T00:02:45;7.00;67.40
3055;DHT22;1537;52.018;8.542;2022-11-12T00:06:27;6.90;67.40
3055;DHT22;1537;52.018;8.542;2022-11-12T00:10:09;6.80;67.90
3055;DHT22;1537;52.018;8.542;2022-11-12T00:13:53;6.70;68.20
3055;DHT22;1537;52.018;8.542;2022-11-12T00:17:36;6.70;68.70
3055;DHT22;1537;52.018;8.542;2022-11-12T00:21:21;6.70;68.90
3055;DHT22;1537;52.018;8.542;2022-11-12T00:25:04;6.80;68.80
3055;DHT22;1537;52.018;8.542;2022-11-12T00:28:48;6.70;68.90
3055;DHT22;1537;52.018;8.542;2022-11-12T00:32:36;6.70;68.70
3055;DHT22;1537;52.018;8.542;2022-11-12T00:36:19;6.70;68.90
3055;DHT22;1537;52.018;8.542;2022-11-12T00:40:05;6.60;68.30
3055;DHT22;1537;52.018;8.542;2022-11-12T00:43:48;6.50;68.50
3055;DHT22;1537;52.018;8.542;2022-11-12T00:47:30;6.50;69.00
3055;DHT22;1537;52.018;8.542;2022-11-12T00:51:14;6.50;69.10
3055;DHT22;1537;52.018;8.542;2022-11-12T00:54:57;6.50;69.20
3055;DHT22;1537;52.018;8.542;2022-11-12T00:58:39;6.50;68.80
3055;DHT22;1537;52.018;8.542;2022-11-12T01:02:21;6.30;68.90
3055;DHT22;1537;52.018;8.542;2022-11-12T01:06:04;6.20;69.40
3055;DHT22;1537;52.018;8.542;2022-11-12T01:09:48;6.20;69.60
3055;DHT22;1537;52.018;8.542;2022-11-12T01:13:30;6.20;69.80
3055;DHT22;1537;52.018;8.542;2022-11-12T01:17:12;6.20;70.20
3055;DHT22;1537;52.018;8.542;2022-11-12T01:20:54;6.20;70.20
3055;DHT22;1537;52.018;8.542;2022-11-12T01:24:36;6.10;70.00
3055;DHT22;1537;52.018;8.542;2022-11-12T01:28:20;6.10;70.80
3055;DHT22;1537;52.018;8.542;2022-11-12T01:32:03;6.00;70.40
3055;DHT22;1537;52.018;8.542;2022-11-12T01:35:45;6.00;70.60
3055;DHT22;1537;52.018;8.542;2022-11-12T01:39:27;5.90;70.70
3055;DHT22;1537;52.018;8.542;2022-11-12T01:43:11;6.00;70.80
3055;DHT22;1537;52.018;8.542;2022-11-12T01:47:02;5.90;70.60
3055;DHT22;1537;52.018;8.542;2022-11-12T01:50:45;6.00;70.50
3055;DHT22;1537;52.018;8.542;2022-11-12T01:54:28;5.90;70.60
3055;DHT22;1537;52.018;8.542;2022-11-12T01:58:14;5.80;70.90
3055;DHT22;1537;52.018;8.542;2022-11-12T02:02:00;5.70;71.10
3055;DHT22;1537;52.018;8.542;2022-11-12T02:05:45;5.70;71.00
3055;DHT22;1537;52.018;8.542;2022-11-12T02:09:30;5.80;71.00
3055;DHT22;1537;52.018;8.542;2022-11-12T02:13:12;5.70;71.00
3055;DHT22;1537;52.018;8.542;2022-11-12T02:17:13;5.70;71.20
3055;DHT22;1537;52.018;8.542;2022-11-12T02:20:57;5.70;71.00
3055;DHT22;1537;52.018;8.542;2022-11-12T02:24:41;5.60;72.10
3055;DHT22;1537;52.018;8.542;2022-11-12T02:28:23;5.60;71.60
3055;DHT22;1537;52.018;8.542;2022-11-12T02:32:06;5.60;71.70
3055;DHT22;1537;52.018;8.542;2022-11-12T02:35:49;5.60;71.40
3055;DHT22;1537;52.018;8.542;2022-11-12T02:39:31;5.60;71.90
3055;DHT22;1537;52.018;8.542;2022-11-12T02:43:15;5.50;71.00
3055;DHT22;1537;52.018;8.542;2022-11-12T02:46:57;5.50;71.30
3055;DHT22;1537;52.018;8.542;2022-11-12T02:50:39;5.50;71.30
3055;DHT22;1537;52.018;8.542;2022-11-12T02:54:21;5.50;71.20
3055;DHT22;1537;52.018;8.542;2022-11-12T02:58:03;5.40;71.30
3055;DHT22;1537;52.018;8.542;2022-11-12T03:01:47;5.40;71.50
3055;DHT22;1537;52.018;8.542;2022-11-12T03:05:31;5.30;71.70
3055;DHT22;1537;52.018;8.542;2022-11-12T03:09:14;5.40;71.50
3055;DHT22;1537;52.018;8.542;2022-11-12T03:12:57;5.40;71.30
3055;DHT22;1537;52.018;8.542;2022-11-12T03:16:39;5.40;71.40
3055;DHT22;1537;52.018;8.542;2022-11-12T03:20:24;5.40;71.60
3055;DHT22;1537;52.018;8.542;2022-11-12T03:24:06;5.40;71.40
3055;DHT22;1537;52.018;8.542;2022-11-12T03:27:48;5.30;71.20
3055;DHT22;1537;52.018;8.542;2022-11-12T03:31:37;5.30;71.30
3055;DHT22;1537;52.018;8.542;2022-11-12T03:35:19;5.30;71.10
3055;DHT22;1537;52.018;8.542;2022-11-12T03:39:02;5.20;71.20
3055;DHT22;1537;52.018;8.542;2022-11-12T03:42:45;5.20;71.10
3055;DHT22;1537;52.018;8.542;2022-11-12T03:46:28;5.10;71.10
3055;DHT22;1537;52.018;8.542;2022-11-12T03:50:10;5.10;71.00
3055;DHT22;1537;52.018;8.542;2022-11-12T03:53:52;5.00;71.40
3055;DHT22;1537;52.018;8.542;2022-11-12T03:57:36;4.90;71.70
3055;DHT22;1537;52.018;8.542;2022-11-12T04:01:18;4.90;72.00
3055;DHT22;1537;52.018;8.542;2022-11-12T04:05:00;4.90;72.00
3055;DHT22;1537;52.018;8.542;2022-11-12T04:09:00;4.90;72.10
3055;DHT22;1537;52.018;8.542;2022-11-12T04:12:44;4.90;72.10
3055;DHT22;1537;52.018;8.542;2022-11-12T04:16:43;5.00;71.90
3055;DHT22;1537;52.018;8.542;2022-11-12T04:20:43;5.00;71.80
3055;DHT22;1537;52.018;8.542;2022-11-12T04:24:43;4.90;71.80
3055;DHT22;1537;52.018;8.542;2022-11-12T04:28:45;4.90;71.80
3055;DHT22;1537;52.018;8.542;2022-11-12T04:32:47;4.80;71.60
3055;DHT22;1537;52.018;8.542;2022-11-12T04:36:30;4.70;71.80
3055;DHT22;1537;52.018;8.542;2022-11-12T04:40:14;4.70;72.00
3055;DHT22;1537;52.018;8.542;2022-11-12T04:44:15;4.60;72.10
3055;DHT22;1537;52.018;8.542;2022-11-12T04:48:15;4.50;72.10
3055;DHT22;1537;52.018;8.542;2022-11-12T04:51:57;4.60;73.10
3055;DHT22;1537;52.018;8.542;2022-11-12T04:55:48;4.60;72.20
3055;DHT22;1537;52.018;8.542;2022-11-12T04:59:32;4.60;72.20
3055;DHT22;1537;52.018;8.542;2022-11-12T05:03:15;4.60;72.30
3055;DHT22;1537;52.018;8.542;2022-11-12T05:06:58;4.50;72.50
3055;DHT22;1537;52.018;8.542;2022-11-12T05:10:40;4.60;72.50
3055;DHT22;1537;52.018;8.542;2022-11-12T05:14:23;4.70;72.20
3055;DHT22;1537;52.018;8.542;2022-11-12T05:18:07;4.70;72.10
3055;DHT22;1537;52.018;8.542;2022-11-12T05:21:49;4.70;72.10
3055;DHT22;1537;52.018;8.542;2022-11-12T05:25:50;4.70;72.10
3055;DHT22;1537;52.018;8.542;2022-11-12T05:29:32;4.70;72.10
3055;DHT22;1537;52.018;8.542;2022-11-12T05:33:16;4.70;72.00
3055;DHT22;1537;52.018;8.542;2022-11-12T05:36:58;4.80;71.90
3055;DHT22;1537;52.018;8.542;2022-11-12T05:40:43;4.70;71.60
3055;DHT22;1537;52.018;8.542;2022-11-12T05:44:26;4.60;71.80
3055;DHT22;1537;52.018;8.542;2022-11-12T05:48:08;4.60;72.00
3055;DHT22;1537;52.018;8.542;2022-11-12T05:51:52;4.60;72.00
3055;DHT22;1537;52.018;8.542;2022-11-12T05:55:34;4.50;72.00
3055;DHT22;1537;52.018;8.542;2022-11-12T05:59:17;4.50;72.00
3055;DHT22;1537;52.018;8.542;2022-11-12T06:02:59;4.60;72.10
3055;DHT22;1537;52.018;8.542;2022-11-12T06:06:42;4.60;72.10
3055;DHT22;1537;52.018;8.542;2022-11-12T06:10:26;4.60;71.90
3055;DHT22;1537;52.018;8.542;2022-11-12T06:14:08;4.60;71.80
3055;DHT22;1537;52.018;8.542;2022-11-12T06:17:51;4.60;71.90
3055;DHT22;1537;52.018;8.542;2022-11-12T06:21:33;4.50;71.80
3055;DHT22;1537;52.018;8.542;2022-11-12T06:25:15;4.50;72.00
3055;DHT22;1537;52.018;8.542;2022-11-12T06:28:59;4.40;72.10
3055;DHT22;1537;52.018;8.542;2022-11-12T06:32:41;4.40;71.70
3055;DHT22;1537;52.018;8.542;2022-11-12T06:36:26;4.30;72.20
3055;DHT22;1537;52.018;8.542;2022-11-12T06:40:08;4.30;72.40
3055;DHT22;1537;52.018;8.542;2022-11-12T06:43:51;4.30;71.90
3055;DHT22;1537;52.018;8.542;2022-11-12T06:47:34;4.30;72.50
3055;DHT22;1537;52.018;8.542;2022-11-12T06:51:18;4.40;72.80
3055;DHT22;1537;52.018;8.542;2022-11-12T06:55:01;4.40;73.00
3055;DHT22;1537;52.018;8.542;2022-11-12T06:58:43;4.50;73.00
3055;DHT22;1537;52.018;8.542;2022-11-12T07:02:25;4.70;73.00
3055;DHT22;1537;52.018;8.542;2022-11-12T07:06:10;4.70;72.70
3055;DHT22;1537;52.018;8.542;2022-11-12T07:09:52;4.90;72.50
3055;DHT22;1537;52.018;8.542;2022-11-12T07:13:35;4.90;72.20
3055;DHT22;1537;52.018;8.542;2022-11-12T07:17:18;5.00;71.80
3055;DHT22;1537;52.018;8.542;2022-11-12T07:21:02;5.10;71.90
3055;DHT22;1537;52.018;8.542;2022-11-12T07:24:45;5.10;71.50
3055;DHT22;1537;52.018;8.542;2022-11-12T07:28:28;5.20;71.00
3055;DHT22;1537;52.018;8.542;2022-11-12T07:32:10;5.30;71.00
3055;DHT22;1537;52.018;8.542;2022-11-12T07:35:57;5.40;70.90
3055;DHT22;1537;52.018;8.542;2022-11-12T07:39:39;5.50;70.70
3055;DHT22;1537;52.018;8.542;2022-11-12T07:43:23;5.70;70.40
3055;DHT22;1537;52.018;8.542;2022-11-12T07:47:05;5.80;69.90
3055;DHT22;1537;52.018;8.542;2022-11-12T07:50:47;6.00;69.80
3055;DHT22;1537;52.018;8.542;2022-11-12T07:54:29;6.20;69.20
3055;DHT22;1537;52.018;8.542;2022-11-12T07:58:12;6.40;66.90
3055;DHT22;1537;52.018;8.542;2022-11-12T08:01:55;6.60;67.40
3055;DHT22;1537;52.018;8.542;2022-11-12T08:05:38;7.30;64.70
3055;DHT22;1537;52.018;8.542;2022-11-12T08:09:20;9.10;61.80
3055;DHT22;1537;52.018;8.542;2022-11-12T08:13:02;10.80;55.60
3055;DHT22;1537;52.018;8.542;2022-11-12T08:16:45;12.40;51.80
3055;DHT22;1537;52.018;8.542;2022-11-12T08:20:28;13.40;46.90
3055;DHT22;1537;52.018;8.542;2022-11-12T08:24:11;14.00;45.10
3055;DHT22;1537;52.018;8.542;2022-11-12T08:27:56;14.40;43.80
3055;DHT22;1537;52.018;8.542;2022-11-12T08:31:39;14.60;43.30
3055;DHT22;1537;52.018;8.542;2022-11-12T08:35:20;14.70;42.60
3055;DHT22;1537;52.018;8.542;2022-11-12T08:39:04;15.00;42.90
3055;DHT22;1537;52.018;8.542;2022-11-12T08:42:47;15.90;41.20
3055;DHT22;1537;52.018;8.542;2022-11-12T08:46:29;17.80;40.00
3055;DHT22;1537;52.018;8.542;2022-11-12T08:50:11;19.40;36.50
3055;DHT22;1537;52.018;8.542;2022-11-12T08:53:53;20.30;34.20
3055;DHT22;1537;52.018;8.542;2022-11-12T08:57:40;19.10;35.50
3055;DHT22;1537;52.018;8.542;2022-11-12T09:01:22;19.10;35.70
3055;DHT22;1537;52.018;8.542;2022-11-12T09:05:05;17.80;36.80
3055;DHT22;1537;52.018;8.542;2022-11-12T09:08:48;15.20;40.40
3055;DHT22;1537;52.018;8.542;2022-11-12T09:12:30;13.10;45.60
3055;DHT22;1537;52.018;8.542;2022-11-12T09:16:14;12.30;46.80
3055;DHT22;1537;52.018;8.542;2022-11-12T09:19:58;11.50;49.10
3055;DHT22;1537;52.018;8.542;2022-11-12T09:23:40;10.90;50.50
3055;DHT22;1537;52.018;8.542;2022-11-12T09:27:25;10.70;51.60
3055;DHT22;1537;52.018;8.542;2022-11-12T09:31:08;10.50;52.30
3055;DHT22;1537;52.018;8.542;2022-11-12T09:34:51;10.40;53.20
3055;DHT22;1537;52.018;8.542;2022-11-12T09:38:33;10.00;53.80
3055;DHT22;1537;52.018;8.542;2022-11-12T09:42:17;9.90;55.50
3055;DHT22;1537;52.018;8.542;2022-11-12T09:46:03;10.20;54.10
3055;DHT22;1537;52.018;8.542;2022-11-12T09:50:17;10.10;54.30
3055;DHT22;1537;52.018;8.542;2022-11-12T09:54:05;9.90;55.30
3055;DHT22;1537;52.018;8.542;2022-11-12T09:57:53;10.10;55.10
3055;DHT22;1537;52.018;8.542;2022-11-12T10:01:42;10.10;54.30
3055;DHT22;1537;52.018;8.542;2022-11-12T10:05:33;10.20;54.10
3055;DHT22;1537;52.018;8.542;2022-11-12T10:09:19;10.10;54.80
3055;DHT22;1537;52.018;8.542;2022-11-12T10:13:12;10.70;54.50
3055;DHT22;1537;52.018;8.542;2022-11-12T10:17:04;11.40;52.90
3055;DHT22;1537;52.018;8.542;2022-11-12T10:20:54;12.20;51.10
3055;DHT22;1537;52.018;8.542;2022-11-12T10:24:37;12.80;51.00
3055;DHT22;1537;52.018;8.542;2022-11-12T10:28:26;13.80;47.40
3055;DHT22;1537;52.018;8.542;2022-11-12T10:32:20;14.80;46.30
3055;DHT22;1537;52.018;8.542;2022-11-12T10:36:18;15.10;45.60
3055;DHT22;1537;52.018;8.542;2022-11-12T10:40:25;14.70;46.20
3055;DHT22;1537;52.018;8.542;2022-11-12T10:44:13;13.10;48.20
3055;DHT22;1537;52.018;8.542;2022-11-12T10:47:56;12.40;50.70
3055;DHT22;1537;52.018;8.542;2022-11-12T10:51:40;11.80;52.30
3055;DHT22;1537;52.018;8.542;2022-11-12T10:55:24;11.40;53.20
3055;DHT22;1537;52.018;8.542;2022-11-12T10:59:14;11.30;54.10
3055;DHT22;1537;52.018;8.542;2022-11-12T11:02:56;11.30;54.10
3055;DHT22;1537;52.018;8.542;2022-11-12T11:06:41;11.40;54.30
3055;DHT22;1537;52.018;8.542;2022-11-12T11:10:25;11.30;54.50
3055;DHT22;1537;52.018;8.542;2022-11-12T11:14:24;11.30;55.10
3055;DHT22;1537;52.018;8.542;2022-11-12T11:18:09;11.60;54.00
3055;DHT22;1537;52.018;8.542;2022-11-12T11:21:59;11.70;54.10
3055;DHT22;1537;52.018;8.542;2022-11-12T11:25:46;11.70;54.10
3055;DHT22;1537;52.018;8.542;2022-11-12T11:29:53;12.00;53.90
3055;DHT22;1537;52.018;8.542;2022-11-12T11:33:43;12.10;53.70
3055;DHT22;1537;52.018;8.542;2022-11-12T11:37:29;12.00;53.70
3055;DHT22;1537;52.018;8.542;2022-11-12T11:45:22;11.50;55.10
3055;DHT22;1537;52.018;8.542;2022-11-12T11:53:28;11.90;54.50
3055;DHT22;1537;52.018;8.542;2022-11-12T11:57:20;12.10;54.60
3055;DHT22;1537;52.018;8.542;2022-11-12T12:01:08;12.30;54.10
3055;DHT22;1537;52.018;8.542;2022-11-12T12:04:56;12.00;54.50
3055;DHT22;1537;52.018;8.542;2022-11-12T12:09:01;11.70;54.50
3055;DHT22;1537;52.018;8.542;2022-11-12T12:12:53;11.90;54.80
3055;DHT22;1537;52.018;8.542;2022-11-12T12:16:49;12.00;54.80
3055;DHT22;1537;52.018;8.542;2022-11-12T12:20:37;11.90;55.10
3055;DHT22;1537;52.018;8.542;2022-11-12T12:24:26;11.90;55.40
3055;DHT22;1537;52.018;8.542;2022-11-12T12:28:15;11.80;55.30
3055;DHT22;1537;52.018;8.542;2022-11-12T12:32:04;12.10;55.40
3055;DHT22;1537;52.018;8.542;2022-11-12T12:35:51;12.10;54.80
3055;DHT22;1537;52.018;8.542;2022-11-12T12:39:41;11.90;55.50
3055;DHT22;1537;52.018;8.542;2022-11-12T12:43:33;12.00;55.40
3055;DHT22;1537;52.018;8.542;2022-11-12T12:47:18;12.00;55.60
3055;DHT22;1537;52.018;8.542;2022-11-12T12:51:01;12.10;55.30
3055;DHT22;1537;52.018;8.542;2022-11-12T12:54:57;12.10;55.60
3055;DHT22;1537;52.018;8.542;2022-11-12T12:58:41;12.20;55.60
3055;DHT22;1537;52.018;8.542;2022-11-12T13:02:24;12.40;55.20
3055;DHT22;1537;52.018;8.542;2022-11-12T13:06:12;12.60;54.60
3055;DHT22;1537;52.018;8.542;2022-11-12T13:18:58;12.60;54.50
3055;DHT22;1537;52.018;8.542;2022-11-12T13:22:49;12.70;55.00
3055;DHT22;1537;52.018;8.542;2022-11-12T13:26:46;12.70;55.10
3055;DHT22;1537;52.018;8.542;2022-11-12T13:30:56;12.80;55.30
3055;DHT22;1537;52.018;8.542;2022-11-12T13:34:39;12.70;55.00
3055;DHT22;1537;52.018;8.542;2022-11-12T13:38:22;12.70;55.30
3055;DHT22;1537;52.018;8.542;2022-11-12T13:42:12;12.70;55.40
3055;DHT22;1537;52.018;8.542;2022-11-12T13:46:25;12.80;55.50
3055;DHT22;1537;52.018;8.542;2022-11-12T13:50:13;12.90;55.20
3055;DHT22;1537;52.018;8.542;2022-11-12T13:53:57;12.80;55.30
3055;DHT22;1537;52.018;8.542;2022-11-12T13:57:39;12.60;55.90
3055;DHT22;1537;52.018;8.542;2022-11-12T14:01:22;12.60;56.10
3055;DHT22;1537;52.018;8.542;2022-11-12T14:05:13;12.40;56.50
3055;DHT22;1537;52.018;8.542;2022-11-12T14:09:11;12.60;56.80
3055;DHT22;1537;52.018;8.542;2022-11-12T14:13:13;12.50;56.80
3055;DHT22;1537;52.018;8.542;2022-11-12T14:17:13;12.40;57.40
3055;DHT22;1537;52.018;8.542;2022-11-12T14:21:05;12.50;57.60
3055;DHT22;1537;52.018;8.542;2022-11-12T14:24:57;12.40;58.00
3055;DHT22;1537;52.018;8.542;2022-11-12T14:28:40;12.40;58.30
3055;DHT22;1537;52.018;8.542;2022-11-12T14:32:23;12.30;58.40
3055;DHT22;1537;52.018;8.542;2022-11-12T14:36:11;12.20;58.70
3055;DHT22;1537;52.018;8.542;2022-11-12T14:39:54;12.30;58.80
3055;DHT22;1537;52.018;8.542;2022-11-12T14:43:37;12.20;59.10
3055;DHT22;1537;52.018;8.542;2022-11-12T14:47:22;12.20;59.10
3055;DHT22;1537;52.018;8.542;2022-11-12T14:51:08;12.10;59.50
3055;DHT22;1537;52.018;8.542;2022-11-12T14:54:54;12.10;59.50
3055;DHT22;1537;52.018;8.542;2022-11-12T14:58:38;12.10;59.80
3055;DHT22;1537;52.018;8.542;2022-11-12T15:02:23;12.00;59.80
3055;DHT22;1537;52.018;8.542;2022-11-12T15:06:31;11.90;60.00
3055;DHT22;1537;52.018;8.542;2022-11-12T15:10:32;11.80;60.40
3055;DHT22;1537;52.018;8.542;2022-11-12T15:14:20;11.80;60.60
3055;DHT22;1537;52.018;8.542;2022-11-12T15:18:05;11.80;60.80
3055;DHT22;1537;52.018;8.542;2022-11-12T15:21:50;11.70;60.90
3055;DHT22;1537;52.018;8.542;2022-11-12T15:25:33;11.70;61.20
3055;DHT22;1537;52.018;8.542;2022-11-12T15:29:30;11.50;61.50
3055;DHT22;1537;52.018;8.542;2022-11-12T15:33:17;11.40;62.10
3055;DHT22;1537;52.018;8.542;2022-11-12T15:37:05;11.30;62.70
3055;DHT22;1537;52.018;8.542;2022-11-12T15:40:52;11.20;63.10
3055;DHT22;1537;52.018;8.542;2022-11-12T15:44:38;11.00;63.40
3055;DHT22;1537;52.018;8.542;2022-11-12T15:48:20;11.00;63.90
3055;DHT22;1537;52.018;8.542;2022-11-12T15:52:05;11.00;64.10
3055;DHT22;1537;52.018;8.542;2022-11-12T15:55:47;10.90;64.30
3055;DHT22;1537;52.018;8.542;2022-11-12T15:59:31;10.80;64.40
3055;DHT22;1537;52.018;8.542;2022-11-12T16:03:14;10.70;65.20
3055;DHT22;1537;52.018;8.542;2022-11-12T16:06:57;10.60;65.30
3055;DHT22;1537;52.018;8.542;2022-11-12T16:10:43;10.60;65.30
3055;DHT22;1537;52.018;8.542;2022-11-12T16:14:26;10.50;65.70
3055;DHT22;1537;52.018;8.542;2022-11-12T16:18:09;10.40;66.10
3055;DHT22;1537;52.018;8.542;2022-11-12T16:21:51;10.30;66.20
3055;DHT22;1537;52.018;8.542;2022-11-12T16:25:36;10.30;66.30
3055;DHT22;1537;52.018;8.542;2022-11-12T16:29:20;10.20;66.60
3055;DHT22;1537;52.018;8.542;2022-11-12T16:33:03;10.00;67.50
3055;DHT22;1537;52.018;8.542;2022-11-12T16:36:46;9.90;69.40
3055;DHT22;1537;52.018;8.542;2022-11-12T16:40:29;9.70;69.80
3055;DHT22;1537;52.018;8.542;2022-11-12T16:44:11;9.70;69.60
3055;DHT22;1537;52.018;8.542;2022-11-12T16:47:57;9.60;70.40
3055;DHT22;1537;52.018;8.542;2022-11-12T16:51:39;9.60;70.50
3055;DHT22;1537;52.018;8.542;2022-11-12T16:55:21;9.50;70.70
3055;DHT22;1537;52.018;8.542;2022-11-12T16:59:03;9.50;70.90
3055;DHT22;1537;52.018;8.542;2022-11-12T17:02:46;9.40;70.90
3055;DHT22;1537;52.018;8.542;2022-11-12T17:06:36;9.40;71.00
3055;DHT22;1537;52.018;8.542;2022-11-12T17:10:19;9.30;71.20
3055;DHT22;1537;52.018;8.542;2022-11-12T17:14:04;9.20;71.50
3055;DHT22;1537;52.018;8.542;2022-11-12T17:17:47;9.20;71.30
3055;DHT22;1537;52.018;8.542;2022-11-12T17:21:30;9.20;71.00
3055;DHT22;1537;52.018;8.542;2022-11-12T17:25:13;9.10;71.30
3055;DHT22;1537;52.018;8.542;2022-11-12T17:28:55;9.00;71.60
3055;DHT22;1537;52.018;8.542;2022-11-12T17:32:47;9.00;71.80
3055;DHT22;1537;52.018;8.542;2022-11-12T17:36:29;8.90;71.90
3055;DHT22;1537;52.018;8.542;2022-11-12T17:40:13;8.90;72.20
3055;DHT22;1537;52.018;8.542;2022-11-12T17:43:57;8.80;72.40
3055;DHT22;1537;52.018;8.542;2022-11-12T17:47:39;8.70;72.60
3055;DHT22;1537;52.018;8.542;2022-11-12T17:51:23;8.60;72.80
3055;DHT22;1537;52.018;8.542;2022-11-12T17:55:06;8.50;73.10
3055;DHT22;1537;52.018;8.542;2022-11-12T17:58:50;8.50;73.30
3055;DHT22;1537;52.018;8.542;2022-11-12T18:02:32;8.50;73.10
3055;DHT22;1537;52.018;8.542;2022-11-12T18:06:16;8.40;73.40
3055;DHT22;1537;52.018;8.542;2022-11-12T18:09:58;8.40;73.50
3055;DHT22;1537;52.018;8.542;2022-11-12T18:13:41;8.40;73.40
3055;DHT22;1537;52.018;8.542;2022-11-12T18:17:25;8.30;74.00
3055;DHT22;1537;52.018;8.542;2022-11-12T18:21:07;8.30;74.60
3055;DHT22;1537;52.018;8.542;2022-11-12T18:24:49;8.20;74.10
3055;DHT22;1537;52.018;8.542;2022-11-12T18:28:32;8.20;74.30
3055;DHT22;1537;52.018;8.542;2022-11-12T18:32:15;8.30;74.40
3055;DHT22;1537;52.018;8.542;2022-11-12T18:36:03;8.30;74.50
3055;DHT22;1537;52.018;8.542;2022-11-12T18:39:46;8.30;74.40
3055;DHT22;1537;52.018;8.542;2022-11-12T18:43:28;8.30;74.40
3055;DHT22;1537;52.018;8.542;2022-11-12T18:47:10;8.30;74.50
3055;DHT22;1537;52.018;8.542;2022-11-12T18:50:56;8.20;74.30
3055;DHT22;1537;52.018;8.542;2022-11-12T18:54:40;8.20;74.40
3055;DHT22;1537;52.018;8.542;2022-11-12T18:58:22;8.20;74.60
3055;DHT22;1537;52.018;8.542;2022-11-12T19:02:09;8.20;74.70
3055;DHT22;1537;52.018;8.542;2022-11-12T19:05:56;8.20;74.80
3055;DHT22;1537;52.018;8.542;2022-11-12T19:09:40;8.20;74.90
3055;DHT22;1537;52.018;8.542;2022-11-12T19:13:22;8.10;74.90
3055;DHT22;1537;52.018;8.542;2022-11-12T19:17:04;8.20;75.00
3055;DHT22;1537;52.018;8.542;2022-11-12T19:20:47;8.20;75.00
3055;DHT22;1537;52.018;8.542;2022-11-12T19:24:30;8.20;75.00
3055;DHT22;1537;52.018;8.542;2022-11-12T19:28:13;8.20;74.60
3055;DHT22;1537;52.018;8.542;2022-11-12T19:31:56;8.10;74.60
3055;DHT22;1537;52.018;8.542;2022-11-12T19:35:38;8.10;74.50
3055;DHT22;1537;52.018;8.542;2022-11-12T19:39:21;8.00;74.40
3055;DHT22;1537;52.018;8.542;2022-11-12T19:43:03;7.90;74.60
3055;DHT22;1537;52.018;8.542;2022-11-12T19:46:46;7.90;75.00
3055;DHT22;1537;52.018;8.542;2022-11-12T19:50:29;7.80;74.80
3055;DHT22;1537;52.018;8.542;2022-11-12T19:54:14;7.80;75.00
3055;DHT22;1537;52.018;8.542;2022-11-12T19:57:55;7.80;75.30
3055;DHT22;1537;52.018;8.542;2022-11-12T20:01:38;7.80;75.50
3055;DHT22;1537;52.018;8.542;2022-11-12T20:05:22;7.80;75.60
3055;DHT22;1537;52.018;8.542;2022-11-12T20:09:04;7.70;75.70
3055;DHT22;1537;52.018;8.542;2022-11-12T20:12:48;7.80;75.80
3055;DHT22;1537;52.018;8.542;2022-11-12T20:16:31;7.80;75.50
3055;DHT22;1537;52.018;8.542;2022-11-12T20:20:13;7.80;75.30
3055;DHT22;1537;52.018;8.542;2022-11-12T20:23:56;7.80;75.30
3055;DHT22;1537;52.018;8.542;2022-11-12T20:27:38;7.80;75.10
3055;DHT22;1537;52.018;8.542;2022-11-12T20:31:21;7.60;75.20
3055;DHT22;1537;52.018;8.542;2022-11-12T20:35:03;7.60;75.40
3055;DHT22;1537;52.018;8.542;2022-11-12T20:38:57;7.50;75.30
3055;DHT22;1537;52.018;8.542;2022-11-12T20:42:40;7.60;75.60
3055;DHT22;1537;52.018;8.542;2022-11-12T20:46:24;7.50;75.50
3055;DHT22;1537;52.018;8.542;2022-11-12T20:50:07;7.40;75.70
3055;DHT22;1537;52.018;8.542;2022-11-12T20:53:50;7.30;75.90
3055;DHT22;1537;52.018;8.542;2022-11-12T20:57:41;7.30;76.10
3055;DHT22;1537;52.018;8.542;2022-11-12T21:01:25;7.30;76.00
3055;DHT22;1537;52.018;8.542;2022-11-12T21:05:08;7.30;75.60
3055;DHT22;1537;52.018;8.542;2022-11-12T21:08:50;7.20;75.50
3055;DHT22;1537;52.018;8.542;2022-11-12T21:12:33;7.20;75.80
3055;DHT22;1537;52.018;8.542;2022-11-12T21:16:17;7.10;75.90
3055;DHT22;1537;52.018;8.542;2022-11-12T21:19:59;7.10;75.90
3055;DHT22;1537;52.018;8.542;2022-11-12T21:23:42;7.20;76.00
3055;DHT22;1537;52.018;8.542;2022-11-12T21:27:24;7.10;75.80
3055;DHT22;1537;52.018;8.542;2022-11-12T21:31:08;7.10;75.80
3055;DHT22;1537;52.018;8.542;2022-11-12T21:34:52;7.00;75.90
3055;DHT22;1537;52.018;8.542;2022-11-12T21:38:35;6.90;76.00
3055;DHT22;1537;52.018;8.542;2022-11-12T21:42:17;6.90;76.40
3055;DHT22;1537;52.018;8.542;2022-11-12T21:45:59;6.90;76.50
3055;DHT22;1537;52.018;8.542;2022-11-12T21:49:42;6.90;76.60
3055;DHT22;1537;52.018;8.542;2022-11-12T21:53:25;6.90;76.50
3055;DHT22;1537;52.018;8.542;2022-11-12T21:57:08;6.90;76.50
3055;DHT22;1537;52.018;8.542;2022-11-12T22:01:05;6.90;76.60
3055;DHT22;1537;52.018;8.542;2022-11-12T22:04:47;6.80;76.60
3055;DHT22;1537;52.018;8.542;2022-11-12T22:08:31;6.80;76.50
3055;DHT22;1537;52.018;8.542;2022-11-12T22:12:13;6.80;76.40
3055;DHT22;1537;52.018;8.542;2022-11-12T22:15:56;6.70;76.50
3055;DHT22;1537;52.018;8.542;2022-11-12T22:19:38;6.70;76.50
3055;DHT22;1537;52.018;8.542;2022-11-12T22:23:21;6.70;76.70
3055;DHT22;1537;52.018;8.542;2022-11-12T22:27:04;6.80;76.60
3055;DHT22;1537;52.018;8.542;2022-11-12T22:30:46;6.80;76.40
3055;DHT22;1537;52.018;8.542;2022-11-12T22:34:28;6.80;76.00
3055;DHT22;1537;52.018;8.542;2022-11-12T22:38:10;6.70;76.10
3055;DHT22;1537;52.018;8.542;2022-11-12T22:41:52;6.70;76.60
3055;DHT22;1537;52.018;8.542;2022-11-12T22:45:35;6.70;76.80
3055;DHT22;1537;52.018;8.542;2022-11-12T22:49:18;6.70;76.60
3055;DHT22;1537;52.018;8.542;2022-11-12T22:53:00;6.70;76.60
3055;DHT22;1537;52.018;8.542;2022-11-12T22:56:42;6.80;76.50
3055;DHT22;1537;52.018;8.542;2022-11-12T23:00:30;6.80;76.30
3055;DHT22;1537;52.018;8.542;2022-11-12T23:04:14;6.80;76.30
3055;DHT22;1537;52.018;8.542;2022-11-12T23:07:56;6.70;75.90
3055;DHT22;1537;52.018;8.542;2022-11-12T23:11:39;6.70;76.10
3055;DHT22;1537;52.018;8.542;2022-11-12T23:15:21;6.70;76.30
3055;DHT22;1537;52.018;8.542;2022-11-12T23:19:04;6.60;76.30
3055;DHT22;1537;52.018;8.542;2022-11-12T23:22:48;6.60;76.30
3055;DHT22;1537;52.018;8.542;2022-11-12T23:26:30;6.60;76.30
3055;DHT22;1537;52.018;8.542;2022-11-12T23:30:13;6.50;76.50
3055;DHT22;1537;52.018;8.542;2022-11-12T23:33:57;6.50;76.80
3055;DHT22;1537;52.018;8.542;2022-11-12T23:37:39;6.50;76.80
3055;DHT22;1537;52.018;8.542;2022-11-12T23:41:24;6.50;76.80
3055;DHT22;1537;52.018;8.542;2022-11-12T23:45:08;6.50;76.50
3055;DHT22;1537;52.018;8.542;2022-11-12T23:48:50;6.50;76.00
3055;DHT22;1537;52.018;8.542;2022-11-12T23:52:32;6.40;76.00
3055;DHT22;1537;52.018;8.542;2022-11-12T23:56:16;6.40;76.20
